createdAt,value
2018-07-01T00:02:12.917Z,59.41
2018-07-01T00:07:09.620Z,58.64
2018-07-01T00:12:06.534Z,58.55
2018-07-01T00:17:02.007Z,58.45
2018-07-01T00:21:58.143Z,59.22
2018-07-01T00:26:53.836Z,58.33
2018-07-01T00:31:50.493Z,59.48
2018-07-01T00:36:46.053Z,60.44
2018-07-01T00:41:41.962Z,60.92
2018-07-01T00:46:37.844Z,60.63
2018-07-01T00:51:35.006Z,60.92
2018-07-01T00:56:30.517Z,61.21
2018-07-01T01:01:27.428Z,61.98
2018-07-01T01:06:24.299Z,61.11
2018-07-01T01:11:20.765Z,61.27
2018-07-01T01:16:16.054Z,61.94
2018-07-01T01:21:12.097Z,62.81
2018-07-01T01:26:08.790Z,62.71
2018-07-01T01:31:04.375Z,63.38
2018-07-01T01:36:00.223Z,63.19
2018-07-01T01:40:55.933Z,63.96
2018-07-01T01:45:52.813Z,62.81
2018-07-01T01:50:49.549Z,62.71
2018-07-01T01:55:46.331Z,62.23
2018-07-01T02:00:41.996Z,62.52
2018-07-01T02:05:37.889Z,62.62
2018-07-01T02:10:34.203Z,62.81
2018-07-01T02:15:31.074Z,63.86
2018-07-01T02:20:26.629Z,63.76
2018-07-01T02:25:23.699Z,64.43
2018-07-01T02:30:19.493Z,64.31
2018-07-01T02:35:16.169Z,65.23
2018-07-01T02:40:12.964Z,66.48
2018-07-01T02:45:08.843Z,67.15
2018-07-01T02:50:04.945Z,67.54
2018-07-01T02:55:02.014Z,66.77
2018-07-01T02:59:57.607Z,67.15
2018-07-01T03:04:53.269Z,67.25
2018-07-01T03:09:50.276Z,67.41
2018-07-01T03:14:45.828Z,67.60
2018-07-01T03:19:42.069Z,66.96
2018-07-01T03:24:37.971Z,68.84
2018-07-01T03:29:34.691Z,67.98
2018-07-01T03:34:31.021Z,68.65
2018-07-01T03:39:26.542Z,69.23
2018-07-01T03:44:22.624Z,69.03
2018-07-01T03:49:18.783Z,69.86
2018-07-01T03:54:14.481Z,69.80
2018-07-01T03:59:10.892Z,69.89
2018-07-01T04:04:07.926Z,68.94
2018-07-01T04:09:04.511Z,69.51
2018-07-01T04:14:00.084Z,69.54
2018-07-01T04:18:57.198Z,69.35
2018-07-01T04:23:53.746Z,69.60
2018-07-01T04:28:49.555Z,68.97
2018-07-01T04:33:46.743Z,68.87
2018-07-01T04:38:44.070Z,67.22
2018-07-01T04:43:41.188Z,61.75
2018-07-01T04:48:38.530Z,58.67
2018-07-01T04:53:35.834Z,55.83
2018-07-01T04:58:33.138Z,53.87
2018-07-01T05:03:30.471Z,54.42
2018-07-01T05:08:27.100Z,52.91
2018-07-01T05:13:24.130Z,51.48
2018-07-01T05:18:21.023Z,49.34
2018-07-01T05:23:18.820Z,47.81
2018-07-01T05:28:15.107Z,46.88
2018-07-01T05:33:12.842Z,47.33
2018-07-01T05:38:09.148Z,48.76
2018-07-01T05:43:05.376Z,47.72
2018-07-01T05:48:02.071Z,45.74
2018-07-01T05:52:58.503Z,44.04
2018-07-01T05:57:54.233Z,47.80
2018-07-01T06:02:49.176Z,48.90
2018-07-01T06:07:42.826Z,51.39
2018-07-01T06:12:37.229Z,53.62
2018-07-01T06:17:32.087Z,54.30
2018-07-01T06:22:27.320Z,54.87
2018-07-01T06:27:22.866Z,54.97
2018-07-01T06:32:19.558Z,55.35
2018-07-01T06:37:14.994Z,55.62
2018-07-01T06:42:10.822Z,54.97
2018-07-01T06:47:06.568Z,54.46
2018-07-01T06:52:02.332Z,54.20
2018-07-01T06:56:58.358Z,53.14
2018-07-01T07:01:54.390Z,52.83
2018-07-01T07:06:50.491Z,51.98
2018-07-01T07:11:46.535Z,50.06
2018-07-01T07:16:42.631Z,49.68
2018-07-01T07:21:39.429Z,48.71
2018-07-01T07:26:36.204Z,47.87
2018-07-01T07:31:31.778Z,47.58
2018-07-01T07:36:27.710Z,46.71
2018-07-01T07:41:25.012Z,45.97
2018-07-01T07:46:20.770Z,44.23
2018-07-01T07:51:17.062Z,43.62
2018-07-01T07:56:18.057Z,39.59
2018-07-01T08:01:18.678Z,36.04
2018-07-01T08:06:17.631Z,34.81
2018-07-01T08:11:16.172Z,33.11
2018-07-01T08:16:13.134Z,32.17
2018-07-01T08:21:10.241Z,32.24
2018-07-01T08:26:07.836Z,31.29
2018-07-01T08:31:04.008Z,30.61
2018-07-01T08:36:00.382Z,30.52
2018-07-01T08:40:56.751Z,30.02
2018-07-01T08:45:53.310Z,30.52
2018-07-01T08:50:50.704Z,30.18
2018-07-01T08:55:47.366Z,29.00
2018-07-01T09:00:44.015Z,30.11
2018-07-01T09:05:41.008Z,30.30
2018-07-01T09:10:36.882Z,29.66
2018-07-01T09:15:34.559Z,29.80
2018-07-01T09:20:29.790Z,30.87
2018-07-01T09:25:26.947Z,29.88
2018-07-01T09:30:23.784Z,30.12
2018-07-01T09:35:20.080Z,31.02
2018-07-01T09:40:15.750Z,30.77
2018-07-01T09:45:12.985Z,30.51
2018-07-01T09:50:09.325Z,28.19
2018-07-01T09:55:06.434Z,30.11
2018-07-01T10:00:02.272Z,28.68
2018-07-01T10:04:58.382Z,32.24
2018-07-01T10:09:53.954Z,30.95
2018-07-01T10:14:49.680Z,29.51
2018-07-01T10:19:46.433Z,28.69
2018-07-01T10:24:43.077Z,27.73
2018-07-01T10:29:40.080Z,27.64
2018-07-01T10:34:36.458Z,27.56
2018-07-01T10:39:34.009Z,27.55
2018-07-01T10:44:30.009Z,29.32
2018-07-01T10:49:25.639Z,28.45
2018-07-01T10:54:21.495Z,28.96
2018-07-01T10:59:22.916Z,30.01
2018-07-01T11:04:18.285Z,27.59
2018-07-01T11:09:14.825Z,28.58
2018-07-01T11:14:10.966Z,28.79
2018-07-01T11:19:08.934Z,28.40
2018-07-01T11:24:05.255Z,27.66
2018-07-01T11:29:03.200Z,26.62
2018-07-01T11:33:59.671Z,27.55
2018-07-01T11:38:55.979Z,26.80
2018-07-01T11:43:53.601Z,28.23
2018-07-01T11:48:48.609Z,29.12
2018-07-01T11:53:45.788Z,27.18
2018-07-01T11:58:41.926Z,26.37
2018-07-01T12:03:39.733Z,25.16
2018-07-01T12:08:36.285Z,24.95
2018-07-01T12:13:31.988Z,28.53
2018-07-01T12:18:27.145Z,26.36
2018-07-01T12:23:23.590Z,26.17
2018-07-01T12:28:19.798Z,26.28
2018-07-01T12:33:15.825Z,26.58
2018-07-01T12:38:13.169Z,25.90
2018-07-01T12:43:09.105Z,25.25
2018-07-01T12:48:04.953Z,27.94
2018-07-01T12:52:59.021Z,29.87
2018-07-01T12:57:54.477Z,28.39
2018-07-01T13:02:50.464Z,29.61
2018-07-01T13:07:46.041Z,28.14
2018-07-01T13:12:42.468Z,29.46
2018-07-01T13:17:38.903Z,28.19
2018-07-01T13:22:35.345Z,30.18
2018-07-01T13:27:31.645Z,30.01
2018-07-01T13:32:26.907Z,30.04
2018-07-01T13:37:22.558Z,30.21
2018-07-01T13:42:18.132Z,30.68
2018-07-01T13:47:13.774Z,32.78
2018-07-01T13:52:09.417Z,33.34
2018-07-01T13:57:06.369Z,34.51
2018-07-01T14:02:01.535Z,36.20
2018-07-01T14:06:56.379Z,35.93
2018-07-01T14:11:50.990Z,35.72
2018-07-01T14:16:46.023Z,36.49
2018-07-01T14:21:41.525Z,36.00
2018-07-01T14:26:37.412Z,36.99
2018-07-01T14:31:34.248Z,35.73
2018-07-01T14:36:29.745Z,35.72
2018-07-01T14:41:26.935Z,36.98
2018-07-01T14:46:22.469Z,36.88
2018-07-01T14:51:18.295Z,35.72
2018-07-01T14:56:15.476Z,35.52
2018-07-01T15:01:11.418Z,35.81
2018-07-01T15:06:07.382Z,35.72
2018-07-01T15:11:03.616Z,36.20
2018-07-01T15:15:59.497Z,35.72
2018-07-01T15:20:55.277Z,36.20
2018-07-01T15:25:51.395Z,34.96
2018-07-01T15:30:47.698Z,35.05
2018-07-01T15:35:43.624Z,34.94
2018-07-01T15:40:39.814Z,35.15
2018-07-01T15:45:35.554Z,35.13
2018-07-01T15:50:32.460Z,35.42
2018-07-01T15:55:28.201Z,35.04
2018-07-01T16:00:24.094Z,35.72
2018-07-01T16:05:19.848Z,34.84
2018-07-01T16:10:16.835Z,34.36
2018-07-01T16:15:13.515Z,33.59
2018-07-01T16:20:09.247Z,34.27
2018-07-01T16:25:05.932Z,34.27
2018-07-01T16:30:01.623Z,33.69
2018-07-01T16:34:58.442Z,34.17
2018-07-01T16:39:54.321Z,33.29
2018-07-01T16:44:50.352Z,33.67
2018-07-01T16:49:46.251Z,33.86
2018-07-01T16:54:43.115Z,34.54
2018-07-01T16:59:39.838Z,34.45
2018-07-01T17:04:35.369Z,34.27
2018-07-01T17:09:31.156Z,33.76
2018-07-01T17:14:26.860Z,33.47
2018-07-01T17:19:23.225Z,33.37
2018-07-01T17:24:19.344Z,33.86
2018-07-01T17:29:15.258Z,33.86
2018-07-01T17:34:11.181Z,33.65
2018-07-01T17:39:06.951Z,34.13
2018-07-01T17:44:02.810Z,34.13
2018-07-01T17:48:58.892Z,34.13
2018-07-01T17:53:54.914Z,34.13
2018-07-01T17:58:51.854Z,34.13
2018-07-01T18:03:47.310Z,34.12
2018-07-01T18:08:44.035Z,34.50
2018-07-01T18:13:39.974Z,35.08
2018-07-01T18:18:36.340Z,34.87
2018-07-01T18:24:02.966Z,35.06
2018-07-01T18:28:41.528Z,34.68
2018-07-01T18:33:30.675Z,35.06
2018-07-01T18:38:27.508Z,35.45
2018-07-01T18:43:23.044Z,35.82
2018-07-01T18:48:19.289Z,35.63
2018-07-01T18:53:15.118Z,36.98
2018-07-01T18:58:12.253Z,36.98
2018-07-01T19:03:07.696Z,37.25
2018-07-01T19:08:03.424Z,37.35
2018-07-01T19:13:00.448Z,38.20
2018-07-01T19:17:56.038Z,38.01
2018-07-01T19:22:51.782Z,38.20
2018-07-01T19:27:47.611Z,38.66
2018-07-01T19:32:43.510Z,39.34
2018-07-01T19:37:39.360Z,39.82
2018-07-01T19:42:36.205Z,39.99
2018-07-01T19:47:31.576Z,40.28
2018-07-01T19:52:27.732Z,40.76
2018-07-01T19:57:23.742Z,41.03
2018-07-01T20:02:19.381Z,41.99
2018-07-01T20:07:15.044Z,41.97
2018-07-01T20:12:10.716Z,42.26
2018-07-01T20:17:06.874Z,42.46
2018-07-01T20:22:02.866Z,42.93
2018-07-01T20:26:58.726Z,43.80
2018-07-01T20:31:54.746Z,43.88
2018-07-01T20:36:50.564Z,44.26
2018-07-01T20:41:47.108Z,45.13
2018-07-01T20:46:42.621Z,45.90
2018-07-01T20:51:38.494Z,45.87
2018-07-01T20:56:35.428Z,46.26
2018-07-01T21:01:30.794Z,47.22
2018-07-01T21:06:26.775Z,46.84
2018-07-01T21:11:23.654Z,47.58
2018-07-01T21:16:19.548Z,48.16
2018-07-01T21:21:15.199Z,48.74
2018-07-01T21:26:11.613Z,48.64
2018-07-01T21:31:07.183Z,49.31
2018-07-01T21:36:03.869Z,49.38
2018-07-01T21:40:59.570Z,50.05
2018-07-01T21:45:55.436Z,50.25
2018-07-01T21:50:51.088Z,50.25
2018-07-01T21:55:46.619Z,51.47
2018-07-01T22:00:43.203Z,51.86
2018-07-01T22:05:38.820Z,52.05
2018-07-01T22:10:34.488Z,52.62
2018-07-01T22:15:30.484Z,53.01
2018-07-01T22:20:26.094Z,53.39
2018-07-01T22:25:22.151Z,53.46
2018-07-01T22:30:18.954Z,53.66
2018-07-01T22:35:15.271Z,54.42
2018-07-01T22:40:11.021Z,55.00
2018-07-01T22:45:08.452Z,55.29
2018-07-01T22:50:03.763Z,55.55
2018-07-01T22:55:01.046Z,55.47
2018-07-01T22:59:56.822Z,56.02
2018-07-01T23:04:52.761Z,55.67
2018-07-01T23:09:48.531Z,56.31
2018-07-01T23:14:44.783Z,56.89
2018-07-01T23:19:41.994Z,57.65
2018-07-01T23:24:38.461Z,57.28
2018-07-01T23:29:34.981Z,56.51
2018-07-01T23:34:32.145Z,57.85
2018-07-01T23:39:28.900Z,58.11
2018-07-01T23:44:24.383Z,58.20
2018-07-01T23:49:20.242Z,58.39
2018-07-01T23:54:15.905Z,59.06
2018-07-01T23:59:13.143Z,59.45
